• Join FlightAware (Why Join?)
  • Login
  • US Flag 
01:14PM EDT


 

Airport Tracker/Info


-or-


 

Live Flight TrackerFlight Track Log ✈ AWE997 ✈ 05-May-2013 ✈ KORD - KPHL

Flight Track Log - Related Links

Times and Time Zones

All times are in EDT time to prevent confusion due to time zone crossing. See the AWE997 flight status page for this flight to view local times or setup timezone preferences in your user account.

Time Position Orientation Groundspeed Altitude Reporting Facility
EDT Latitude Longitude Course Direction KTS MPH feet Rate Location/Type
10:55AM 42.0000 -87.8500 90° East 167 192 2,900  Level Chicago TRACON
10:57AM 41.9597 -87.4734 97° East  Level FlightAware Approximate
10:57AM 42.0039 -87.7097 88° East 217 250 6,000  Level Chicago Center
10:58AM 41.9476 -87.3319 95° East  Level FlightAware Approximate
10:58AM 41.9956 -87.6142 97° East 254 292 9,200  Level Chicago Center
10:59AM 41.9374 -87.1902 95° East  Level FlightAware Approximate
10:59AM 41.9864 -87.5156 97° East 262 302 11,700  Level Chicago Center
11:00AM 41.9333 -87.0482 90° East  Level FlightAware Approximate
11:00AM 41.9767 -87.3983 96° East 289 333 13,600  Level Chicago Center
11:01AM 41.9658 -87.2831 97° East 328 377 14,900 1,500 Climbing Chicago Center
11:02AM 41.9517 -87.1300 97° East 368 423 16,700 1,800 Climbing Chicago Center
11:03AM 41.9458 -86.9736 93° East 384 442 18,600 1,680 Climbing Chicago Center
11:04AM 41.9486 -86.8256 89° East 397 457 20,200 1,320 Climbing Chicago Center
11:05AM 41.9503 -86.6850 89° East 410 472 21,400 1,200 Climbing Chicago Center
11:06AM 41.9522 -86.5267 89° East 423 487 22,700 1,260 Climbing Chicago Center
11:07AM 41.9258 -86.3719 103° East 429 494 24,100 1,380 Climbing Chicago Center
11:08AM 41.8914 -86.1842 104° East 432 497 25,600 1,320 Climbing Chicago Center
11:09AM 41.8636 -86.0258 103° East 435 501 26,900 1,200 Climbing Chicago Center
11:10AM 41.8378 -85.8656 102° East 439 505 28,100 1,140 Climbing Chicago Center
11:11AM 41.8119 -85.7050 102° East 440 506 29,300 1,200 Climbing Chicago Center
11:12AM 41.7864 -85.5422 102° East 442 509 30,600 1,260 Climbing Chicago Center
11:13AM 41.7681 -85.3783 98° East 438 504 32,000 1,260 Climbing Chicago Center
11:14AM 41.7611 -85.2150 93° East 434 499 33,300 1,260 Climbing Chicago Center
11:15AM 41.7544 -85.0567 93° East 428 493 34,600 1,260 Climbing Chicago Center
11:16AM 41.7542 -84.9956 90° East 433 498 35,000 300 Climbing Cleveland Center
11:17AM 41.7453 -84.8389 94° East 427 491 35,000  Level Cleveland Center
11:18AM 41.7389 -84.6769 93° East 427 491 35,000  Level Cleveland Center
11:19AM 41.7233 -84.5203 98° East 427 491 35,000  Level Cleveland Center
11:20AM 41.6953 -84.3656 104° East 427 491 35,000  Level Cleveland Center
11:21AM 41.6664 -84.2303 106° East 421 484 35,000  Level Cleveland Center
11:22AM 41.6356 -84.0786 105° East 421 484 35,000  Level Cleveland Center
11:23AM 41.6047 -83.9267 105° East 421 484 35,000  Level Cleveland Center
11:24AM 41.5758 -83.7697 104° East 421 484 35,000  Level Cleveland Center
11:25AM 41.5467 -83.6158 104° East 421 484 35,000  Level Cleveland Center
11:26AM 41.5150 -83.4644 106° East 421 484 35,000  Level Cleveland Center
11:27AM 41.4875 -83.3108 103° East 421 484 35,000  Level Cleveland Center
11:28AM 41.4539 -83.1403 105° East 421 484 35,000  Level Cleveland Center
11:29AM 41.4239 -82.9869 105° East 428 493 35,000  Level Cleveland Center
11:30AM 41.3917 -82.8306 105° East 428 493 35,000  Level Cleveland Center
11:31AM 41.3592 -82.6775 106° East 428 493 35,000  Level Cleveland Center
11:32AM 41.3267 -82.5186 105° East 436 502 35,000  Level Cleveland Center
11:33AM 41.2994 -82.3825 105° East 436 502 35,000  Level Cleveland Center
11:34AM 41.2644 -82.2267 107° East 436 502 35,000  Level Cleveland Center
11:35AM 41.2314 -82.0519 104° East 436 502 35,000  Level Cleveland Center
11:36AM 41.2000 -81.8967 105° East 436 502 35,000  Level Cleveland Center
11:37AM 41.1661 -81.7389 106° East 436 502 35,000  Level Cleveland Center
11:38AM 41.1342 -81.5839 105° East 436 502 35,000  Level Cleveland Center
11:39AM 41.0978 -81.4428 109° East 441 507 35,000  Level Cleveland Center
11:40AM 41.0656 -81.2908 106° East 436 502 35,000  Level Cleveland Center
11:41AM 41.0331 -81.1392 106° East 431 496 35,000  Level Cleveland Center
11:42AM 40.9983 -80.9683 105° East 426 490 35,000  Level Cleveland Center
11:43AM 40.9653 -80.8169 106° East 426 490 35,000  Level Cleveland Center
11:44AM 40.9303 -80.6628 107° East 426 490 35,000  Level Cleveland Center
11:45AM 40.8947 -80.5089 107° East 426 490 35,000  Level Cleveland Center
11:46AM 40.8569 -80.3553 108° East 432 497 35,000  Level Cleveland Center
11:47AM 40.8233 -80.2156 108° East 437 503 35,000  Level Cleveland Center
11:48AM 40.7706 -80.0706 116° Southeast 442 509 35,000  Level Cleveland Center
11:49AM 40.7136 -79.9064 115° Southeast 442 509 35,000  Level Cleveland Center
11:50AM 40.6603 -79.7592 115° Southeast 442 509 35,000  Level Cleveland Center
11:51AM 40.6072 -79.6122 115° Southeast 442 509 35,000  Level Cleveland Center
11:52AM 40.5703 -79.4569 107° East 442 509 35,000  Level Cleveland Center
11:53AM 40.5503 -79.3261 101° East 442 509 35,000  Level Cleveland Center
11:54AM 40.5169 -79.1519 104° East 442 509 35,000  Level Cleveland Center
11:55AM 40.4897 -78.9914 103° East 447 514 35,000  Level Cleveland Center
11:56AM 40.4603 -78.8311 104° East 452 520 35,000  Level Cleveland Center
11:57AM 40.4347 -78.6681 102° East 452 520 35,000 -720 Level Cleveland Center
11:58AM 40.4067 -78.5053 103° East 452 520 33,600 -2,040 Descending Cleveland Center
11:59AM 40.3789 -78.3456 103° East 452 520 31,000 -2,760 Descending Cleveland Center
12:00PM 40.3350 -78.0881 103° East 449 517 26,700 -2,400 Descending New York Center
12:01PM 40.3142 -77.9497 101° East 436 502 25,000 -1,380 Descending New York Center
12:02PM 40.3122 -77.8078 91° East 413 475 24,100 -960 Descending New York Center
12:03PM 40.3100 -77.6714 91° East 390 449 23,200 -900 Descending New York Center
12:04PM 40.3094 -77.5353 90° East 383 441 22,300 -1,080 Descending New York Center
12:05PM 40.3086 -77.4017 90° East 373 429 21,100 -1,200 Descending New York Center
12:06PM 40.3039 -77.2625 93° East 362 417 19,900 -1,260 Descending New York Center
12:07PM 40.3028 -77.1317 91° East 356 410 18,700 -1,080 Descending New York Center
12:08PM 40.2861 -77.0103 100° East 344 396 17,800 -900 Descending New York Center
12:09PM 40.2592 -76.8908 106° East 344 396 16,900 -960 Descending New York Center
12:10PM 40.2319 -76.7717 107° East 344 396 15,900 -1,020 Descending New York Center
12:11PM 40.2042 -76.6578 108° East 333 383 14,900 -960 Descending New York Center
12:12PM 40.1786 -76.5414 106° East 328 377 14,000 -960 Descending New York Center
12:13PM 40.1564 -76.4417 106° East 328 377 13,100 -1,020 Descending New York Center
12:14PM 40.1269 -76.3172 107° East 328 377 12,000 -840 Descending New York Center
12:15PM 40.1117 -76.1992 100° East 328 377 11,500 -780 Descending New York Center
12:16PM 40.1039 -76.0928 95° East 305 351 10,500 -1,200 Descending New York Center
12:17PM 40.0981 -75.9919 94° East 289 333 9,100 -1,440 Descending New York Center
12:18PM 40.0919 -75.8936 95° East 275 316 7,700 -960 Descending New York Center
12:19PM 40.0833 -75.8008 97° East 269 310 7,200 -360 Descending New York Center
12:20PM 40.0764 -75.7189 96° East 261 300 7,000 -120 Descending New York Center
12:21PM 40.0192 -75.6906 159° South 181 208 7,000  Level New York Center
12:22PM 39.9614 -75.6811 173° South 200 230 7,000 -120 Level New York Center
12:23PM 39.9053 -75.6717 173° South 200 230 6,800 -780 Descending New York Center
12:24PM 39.8608 -75.6389 150° Southeast 187 215 5,500 -1,200 Descending New York Center
12:25PM 39.8361 -75.5831 120° Southeast 182 209 4,500 -1,140 Descending New York Center
12:26PM 39.8333 -75.5500 96° East 183 211 3,800 -960 Descending Philadelphia TRACON
12:27PM 39.8167 -75.4833 108° East 180 207 3,100 -600 Descending Philadelphia TRACON
12:28PM 39.8333 -75.4167 72° East 179 206 2,600 -840 Descending Philadelphia TRACON
12:29PM 39.8500 -75.3500 72° East 159 183 1,400 -1,020 Descending Philadelphia TRACON
12:30PM 39.8500 -75.3167 90° East 126 145 600 -840 Descending Philadelphia TRACON